createdAt,value
2023-02-04T00:00:27.726Z,1010.37
2023-02-04T00:01:27.711Z,1010.45
2023-02-04T00:02:28.448Z,1010.40
2023-02-04T00:03:27.698Z,1010.46
2023-02-04T00:04:27.654Z,1010.47
2023-02-04T00:05:27.708Z,1010.42
2023-02-04T00:06:27.660Z,1010.44
2023-02-04T00:07:27.681Z,1010.43
2023-02-04T00:08:27.630Z,1010.42
2023-02-04T00:09:27.632Z,1010.48
2023-02-04T00:10:27.620Z,1010.49
2023-02-04T00:11:27.626Z,1010.44
2023-02-04T00:12:27.608Z,1010.35
2023-02-04T00:13:27.603Z,1010.42
2023-02-04T00:14:27.634Z,1010.55
2023-02-04T00:16:00.356Z,1010.54
2023-02-04T00:16:27.671Z,1010.54
2023-02-04T00:17:28.647Z,1010.51
2023-02-04T00:18:27.564Z,1010.56
2023-02-04T00:19:27.555Z,1010.46
2023-02-04T00:20:28.863Z,1010.58
2023-02-04T00:21:27.585Z,1010.60
2023-02-04T00:22:27.575Z,1010.61
2023-02-04T00:23:27.559Z,1010.61
2023-02-04T00:24:27.517Z,1010.68
2023-02-04T00:25:27.594Z,1010.63
2023-02-04T00:26:27.500Z,1010.65
2023-02-04T00:27:27.486Z,1010.69
2023-02-04T00:28:27.578Z,1010.70
2023-02-04T00:29:27.537Z,1010.74
2023-02-04T00:30:27.484Z,1010.68
2023-02-04T00:31:27.628Z,1010.70
2023-02-04T00:32:27.541Z,1010.73
2023-02-04T00:33:27.440Z,1010.67
2023-02-04T00:34:27.463Z,1010.76
2023-02-04T00:35:27.440Z,1010.78
2023-02-04T00:36:27.449Z,1010.76
2023-02-04T00:37:27.486Z,1010.78
2023-02-04T00:38:27.404Z,1010.81
2023-02-04T00:39:27.427Z,1010.80
2023-02-04T00:40:27.451Z,1010.85
2023-02-04T00:41:27.413Z,1010.77
2023-02-04T00:42:27.372Z,1010.82
2023-02-04T00:43:27.428Z,1010.76
2023-02-04T00:44:27.410Z,1010.80
2023-02-04T00:45:27.383Z,1010.79
2023-02-04T00:46:27.354Z,1010.84
2023-02-04T00:47:27.349Z,1010.90
2023-02-04T00:48:27.365Z,1010.86
2023-02-04T00:49:27.365Z,1010.94
2023-02-04T00:50:27.336Z,1010.99
2023-02-04T00:51:27.332Z,1011.00
2023-02-04T00:52:27.297Z,1010.96
2023-02-04T00:53:27.329Z,1011.00
2023-02-04T00:54:27.313Z,1010.95
2023-02-04T00:55:27.301Z,1010.92
2023-02-04T00:56:27.262Z,1010.92
2023-02-04T00:57:27.260Z,1010.95
2023-02-04T00:58:27.244Z,1011.00
2023-02-04T00:59:27.289Z,1010.96
2023-02-04T01:00:27.218Z,1011.06
2023-02-04T01:01:27.240Z,1011.04
2023-02-04T01:02:27.319Z,1011.07
2023-02-04T01:03:27.257Z,1011.11
2023-02-04T01:04:27.222Z,1011.10
2023-02-04T01:05:27.209Z,1011.23
2023-02-04T01:06:27.189Z,1011.09
2023-02-04T01:07:27.236Z,1011.19
2023-02-04T01:08:27.176Z,1011.14
2023-02-04T01:09:27.199Z,1011.11
2023-02-04T01:10:27.164Z,1011.17
2023-02-04T01:11:27.160Z,1011.13
2023-02-04T01:12:27.167Z,1011.15
2023-02-04T01:13:27.157Z,1011.12
2023-02-04T01:14:27.192Z,1011.15
2023-02-04T01:15:27.129Z,1011.14
2023-02-04T01:16:27.305Z,1011.19
2023-02-04T01:17:27.094Z,1011.14
2023-02-04T01:18:27.159Z,1011.18
2023-02-04T01:19:27.199Z,1011.21
2023-02-04T01:20:27.105Z,1011.22
2023-02-04T01:21:27.086Z,1011.14
2023-02-04T01:22:28.137Z,1011.22
2023-02-04T01:23:28.061Z,1011.19
2023-02-04T01:24:27.107Z,1011.14
2023-02-04T01:25:27.102Z,1011.22
2023-02-04T01:26:27.090Z,1011.21
2023-02-04T01:27:27.041Z,1011.24
2023-02-04T01:28:27.040Z,1011.26
2023-02-04T01:29:27.037Z,1011.20
2023-02-04T01:30:27.024Z,1011.24
2023-02-04T01:31:27.113Z,1011.21
2023-02-04T01:32:27.009Z,1011.30
2023-02-04T01:33:27.014Z,1011.25
2023-02-04T01:34:26.982Z,1011.18
2023-02-04T01:35:26.987Z,1011.22
2023-02-04T01:36:26.975Z,1011.32
2023-02-04T01:37:27.481Z,1011.28
2023-02-04T01:38:26.968Z,1011.31
2023-02-04T01:39:27.024Z,1011.27
2023-02-04T01:40:26.954Z,1011.42
2023-02-04T01:41:26.975Z,1011.42
2023-02-04T01:42:26.914Z,1011.45
2023-02-04T01:43:26.937Z,1011.53
2023-02-04T01:44:26.905Z,1011.53
2023-02-04T01:45:26.892Z,1011.63
2023-02-04T01:46:26.918Z,1011.70
2023-02-04T01:47:26.932Z,1011.76
2023-02-04T01:48:26.942Z,1011.76
2023-02-04T01:49:26.868Z,1011.84
2023-02-04T01:50:26.850Z,1011.84
2023-02-04T01:51:26.904Z,1011.87
2023-02-04T01:52:26.913Z,1011.92
2023-02-04T01:53:26.851Z,1011.87
2023-02-04T01:54:26.857Z,1011.88
2023-02-04T01:55:27.447Z,1011.89
2023-02-04T01:56:26.868Z,1011.93
2023-02-04T01:57:26.841Z,1011.98
2023-02-04T01:58:26.841Z,1011.92
2023-02-04T01:59:26.786Z,1011.93
2023-02-04T02:00:26.813Z,1011.97
2023-02-04T02:01:26.829Z,1012.01
2023-02-04T02:02:26.861Z,1012.03
2023-02-04T02:03:26.767Z,1012.05
2023-02-04T02:04:26.857Z,1012.05
2023-02-04T02:05:26.796Z,1012.11
2023-02-04T02:06:26.732Z,1012.13
2023-02-04T02:07:26.743Z,1012.12
2023-02-04T02:08:26.724Z,1012.12
2023-02-04T02:09:26.718Z,1012.20
2023-02-04T02:10:26.754Z,1012.13
2023-02-04T02:11:26.764Z,1012.19
2023-02-04T02:12:26.740Z,1012.21
2023-02-04T02:13:26.764Z,1012.19
2023-02-04T02:14:26.702Z,1012.14
2023-02-04T02:15:26.688Z,1012.18
2023-02-04T02:16:26.719Z,1012.17
2023-02-04T02:17:26.691Z,1012.18
2023-02-04T02:18:26.655Z,1012.18
2023-02-04T02:19:26.684Z,1012.19
2023-02-04T02:20:26.681Z,1012.24
2023-02-04T02:21:26.659Z,1012.28
2023-02-04T02:22:27.320Z,1012.36
2023-02-04T02:23:26.650Z,1012.35
2023-02-04T02:24:26.625Z,1012.31
2023-02-04T02:25:26.612Z,1012.35
2023-02-04T02:26:26.582Z,1012.34
2023-02-04T02:27:26.595Z,1012.35
2023-02-04T02:28:26.596Z,1012.36
2023-02-04T02:29:26.557Z,1012.42
2023-02-04T02:30:26.622Z,1012.34
2023-02-04T02:31:26.709Z,1012.31
2023-02-04T02:32:26.548Z,1012.25
2023-02-04T02:33:26.569Z,1012.27
2023-02-04T02:34:26.542Z,1012.32
2023-02-04T02:35:26.516Z,1012.34
2023-02-04T02:36:26.517Z,1012.39
2023-02-04T02:37:26.512Z,1012.40
2023-02-04T02:38:26.490Z,1012.41
2023-02-04T02:39:26.549Z,1012.45
2023-02-04T02:40:26.486Z,1012.47
2023-02-04T02:41:26.474Z,1012.43
2023-02-04T02:42:26.435Z,1012.43
2023-02-04T02:43:26.455Z,1012.48
2023-02-04T02:44:26.595Z,1012.42
2023-02-04T02:45:26.472Z,1012.42
2023-02-04T02:46:26.445Z,1012.44
2023-02-04T02:47:27.405Z,1012.42
2023-02-04T02:48:26.445Z,1012.42
2023-02-04T02:49:26.425Z,1012.36
2023-02-04T02:50:26.446Z,1012.44
2023-02-04T02:51:26.393Z,1012.43
2023-02-04T02:52:26.436Z,1012.43
2023-02-04T02:53:26.367Z,1012.51
2023-02-04T02:54:26.405Z,1012.53
2023-02-04T02:55:26.349Z,1012.52
2023-02-04T02:56:26.378Z,1012.55
2023-02-04T02:57:26.374Z,1012.52
2023-02-04T02:58:26.476Z,1012.53
2023-02-04T02:59:26.327Z,1012.54
2023-02-04T03:00:26.333Z,1012.55
2023-02-04T03:01:26.321Z,1012.57
2023-02-04T03:02:26.306Z,1012.57
2023-02-04T03:03:26.308Z,1012.51
2023-02-04T03:04:26.272Z,1012.54
2023-02-04T03:05:26.282Z,1012.55
2023-02-04T03:06:26.842Z,1012.51
2023-02-04T03:07:26.268Z,1012.56
2023-02-04T03:08:26.262Z,1012.54
2023-02-04T03:09:26.237Z,1012.51
2023-02-04T03:10:26.267Z,1012.49
2023-02-04T03:11:26.255Z,1012.57
2023-02-04T03:12:26.323Z,1012.58
2023-02-04T03:13:26.245Z,1012.51
2023-02-04T03:14:26.190Z,1012.55
2023-02-04T03:15:27.369Z,1012.62
2023-02-04T03:16:26.199Z,1012.51
2023-02-04T03:17:26.208Z,1012.56
2023-02-04T03:18:26.267Z,1012.55
2023-02-04T03:19:26.167Z,1012.62
2023-02-04T03:20:26.181Z,1012.62
2023-02-04T03:21:26.150Z,1012.71
2023-02-04T03:22:26.152Z,1012.71
2023-02-04T03:23:26.963Z,1012.66
2023-02-04T03:24:26.134Z,1012.72
2023-02-04T03:25:26.119Z,1012.66
2023-02-04T03:26:26.122Z,1012.69
2023-02-04T03:27:58.075Z,1012.76
2023-02-04T03:28:26.083Z,1012.76
2023-02-04T03:29:26.223Z,1012.81
2023-02-04T03:30:26.103Z,1012.79
2023-02-04T03:31:26.140Z,1012.87
2023-02-04T03:32:26.053Z,1012.85
2023-02-04T03:33:26.135Z,1012.92
2023-02-04T03:34:26.042Z,1012.95
2023-02-04T03:35:26.047Z,1013.02
2023-02-04T03:36:26.045Z,1013.01
2023-02-04T03:37:26.090Z,1013.04
2023-02-04T03:38:26.060Z,1013.07
2023-02-04T03:39:26.034Z,1013.08
2023-02-04T03:40:26.012Z,1013.10
2023-02-04T03:41:26.011Z,1013.10
2023-02-04T03:42:26.013Z,1013.16
2023-02-04T03:43:26.005Z,1013.16
2023-02-04T03:44:25.975Z,1013.20
2023-02-04T03:45:27.056Z,1013.21
2023-02-04T03:46:26.134Z,1013.30
2023-02-04T04:02:49.071Z,1013.70
2023-02-04T04:03:49.005Z,1013.65
2023-02-04T04:04:49.011Z,1013.73
2023-02-04T04:05:48.983Z,1013.72
2023-02-04T04:06:49.020Z,1013.73
2023-02-04T04:07:48.970Z,1013.73
2023-02-04T04:08:50.151Z,1013.75
2023-02-04T04:09:50.096Z,1013.71
2023-02-04T04:10:50.104Z,1013.72
2023-02-04T04:11:50.089Z,1013.68
2023-02-04T04:12:50.079Z,1013.75
2023-02-04T04:13:50.066Z,1013.72
2023-02-04T04:14:50.062Z,1013.80
2023-02-04T04:15:51.228Z,1013.77
2023-02-04T04:16:50.058Z,1013.84
2023-02-04T04:17:50.052Z,1013.85
2023-02-04T04:18:50.042Z,1013.84
2023-02-04T04:19:50.045Z,1013.81
2023-02-04T04:20:50.050Z,1013.76
2023-02-04T04:21:50.030Z,1013.72
2023-02-04T04:22:50.064Z,1013.69
2023-02-04T04:23:50.019Z,1013.75
2023-02-04T04:24:50.049Z,1013.76
2023-02-04T04:25:49.973Z,1013.76
2023-02-04T04:26:50.003Z,1013.79
2023-02-04T04:27:49.996Z,1013.81
2023-02-04T04:28:50.010Z,1013.83
2023-02-04T04:29:49.936Z,1013.83
2023-02-04T04:30:50.057Z,1013.80
2023-02-04T04:31:50.032Z,1013.94
2023-02-04T04:32:49.974Z,1013.84
2023-02-04T04:33:49.974Z,1013.96
2023-02-04T04:34:49.909Z,1014.03
2023-02-04T04:35:49.896Z,1014.02
2023-02-04T04:36:49.910Z,1014.07
2023-02-04T04:37:49.870Z,1014.05
2023-02-04T04:38:49.886Z,1014.01
2023-02-04T04:39:49.916Z,1014.03
2023-02-04T04:40:49.884Z,1014.04
2023-02-04T04:41:49.871Z,1014.08
2023-02-04T04:42:49.879Z,1014.09
2023-02-04T04:43:50.538Z,1014.09
2023-02-04T04:44:49.842Z,1014.10
2023-02-04T04:45:49.828Z,1014.16
2023-02-04T04:46:49.901Z,1014.16
2023-02-04T04:47:49.895Z,1014.12
2023-02-04T04:48:49.845Z,1014.14
2023-02-04T04:49:49.856Z,1014.12
2023-02-04T04:50:49.805Z,1014.16
2023-02-04T04:51:49.771Z,1014.14
2023-02-04T04:52:49.811Z,1014.17
2023-02-04T04:53:49.761Z,1014.16
2023-02-04T04:54:49.749Z,1014.24
2023-02-04T04:55:49.842Z,1014.20
2023-02-04T04:56:49.749Z,1014.22
2023-02-04T04:57:49.779Z,1014.22
2023-02-04T04:58:49.749Z,1014.23
2023-02-04T04:59:49.713Z,1014.21
2023-02-04T05:00:49.766Z,1014.27
2023-02-04T05:01:49.710Z,1014.29
2023-02-04T05:02:49.704Z,1014.31
2023-02-04T05:03:49.692Z,1014.33
2023-02-04T05:04:49.826Z,1014.31
2023-02-04T05:05:49.661Z,1014.37
2023-02-04T05:06:49.649Z,1014.39
2023-02-04T05:07:49.667Z,1014.32
2023-02-04T05:08:50.626Z,1014.40
2023-02-04T05:09:49.621Z,1014.42
2023-02-04T05:10:49.657Z,1014.46
2023-02-04T05:11:49.731Z,1014.50
2023-02-04T05:12:49.627Z,1014.49
2023-02-04T05:13:49.597Z,1014.51
2023-02-04T05:14:49.600Z,1014.49
2023-02-04T05:15:49.621Z,1014.46
2023-02-04T05:16:49.610Z,1014.51
2023-02-04T05:17:49.628Z,1014.49
2023-02-04T05:18:49.588Z,1014.55
2023-02-04T05:19:49.566Z,1014.52
2023-02-04T05:20:49.613Z,1014.48
2023-02-04T05:21:49.559Z,1014.52
2023-02-04T05:22:49.524Z,1014.55
2023-02-04T05:23:49.532Z,1014.58
2023-02-04T05:24:49.632Z,1014.67
2023-02-04T05:25:49.503Z,1014.66
2023-02-04T05:26:49.506Z,1014.63
2023-02-04T05:27:49.506Z,1014.65
2023-02-04T05:28:49.550Z,1014.67
2023-02-04T05:29:49.485Z,1014.69
2023-02-04T05:30:49.489Z,1014.80
2023-02-04T05:31:50.222Z,1014.82
2023-02-04T05:32:49.457Z,1014.81
2023-02-04T05:33:49.467Z,1014.75
2023-02-04T05:34:49.434Z,1014.85
2023-02-04T05:35:50.015Z,1014.80
2023-02-04T05:36:50.444Z,1014.79
2023-02-04T05:37:49.514Z,1014.80
2023-02-04T05:38:49.419Z,1014.80
2023-02-04T05:39:49.489Z,1014.78
2023-02-04T05:40:49.399Z,1014.80
2023-02-04T05:41:49.410Z,1014.77
2023-02-04T05:42:49.358Z,1014.74
2023-02-04T05:43:49.377Z,1014.80
2023-02-04T05:44:49.382Z,1014.75
2023-02-04T05:45:49.407Z,1014.78
2023-02-04T05:46:50.211Z,1014.79
2023-02-04T05:47:49.346Z,1014.83
2023-02-04T05:48:49.339Z,1014.81
2023-02-04T05:49:49.399Z,1014.90
2023-02-04T05:50:50.394Z,1014.90
2023-02-04T05:51:49.316Z,1014.97
2023-02-04T05:52:49.313Z,1014.95
2023-02-04T05:53:49.309Z,1015.02
2023-02-04T05:54:49.315Z,1015.01
2023-02-04T05:55:49.361Z,1015.04
2023-02-04T05:56:49.298Z,1015.07
2023-02-04T05:57:49.266Z,1015.17
2023-02-04T05:58:49.257Z,1015.17
2023-02-04T05:59:49.296Z,1015.13
2023-02-04T06:00:49.218Z,1015.16
2023-02-04T06:01:49.292Z,1015.21
2023-02-04T06:02:49.218Z,1015.17
2023-02-04T06:03:49.204Z,1015.21
2023-02-04T06:04:49.216Z,1015.18
2023-02-04T06:05:49.184Z,1015.24
2023-02-04T06:06:49.242Z,1015.28
2023-02-04T06:07:49.192Z,1015.35
2023-02-04T06:08:49.226Z,1015.31
2023-02-04T06:09:49.729Z,1015.42
2023-02-04T06:10:49.279Z,1015.46
2023-02-04T06:11:49.143Z,1015.47
2023-02-04T06:12:49.130Z,1015.39
2023-02-04T06:13:49.722Z,1015.46
2023-02-04T06:14:49.118Z,1015.40
2023-02-04T06:16:21.698Z,1015.38
2023-02-04T06:16:49.897Z,1015.41
2023-02-04T06:17:49.189Z,1015.36
2023-02-04T06:18:49.112Z,1015.39
2023-02-04T06:19:49.764Z,1015.37
2023-02-04T06:20:49.122Z,1015.42
2023-02-04T06:21:49.082Z,1015.48
2023-02-04T06:22:49.144Z,1015.57
2023-02-04T06:23:49.069Z,1015.58
2023-02-04T06:24:49.069Z,1015.63
2023-02-04T06:25:49.737Z,1015.62
2023-02-04T06:26:49.095Z,1015.63
2023-02-04T06:27:49.165Z,1015.57
2023-02-04T06:28:49.036Z,1015.70
2023-02-04T06:29:50.036Z,1015.63
2023-02-04T06:30:49.239Z,1015.62
2023-02-04T06:31:49.104Z,1015.58
2023-02-04T06:32:49.054Z,1015.59
2023-02-04T06:33:49.016Z,1015.57
2023-02-04T06:34:49.014Z,1015.65
2023-02-04T06:35:49.001Z,1015.62
2023-02-04T06:36:48.981Z,1015.60
2023-02-04T06:37:49.018Z,1015.67
2023-02-04T06:38:48.965Z,1015.77
2023-02-04T06:39:48.994Z,1015.85
2023-02-04T06:40:48.932Z,1015.86
2023-02-04T06:41:48.941Z,1015.90
2023-02-04T06:42:48.947Z,1015.87
2023-02-04T06:43:48.928Z,1015.88
2023-02-04T06:44:48.969Z,1015.91
2023-02-04T06:45:48.995Z,1015.92
2023-02-04T06:46:48.918Z,1015.99
2023-02-04T06:47:48.944Z,1015.96
2023-02-04T06:48:48.877Z,1016.00
2023-02-04T06:49:48.966Z,1016.08
2023-02-04T06:50:48.893Z,1016.09
2023-02-04T06:51:49.421Z,1016.20
2023-02-04T06:52:48.937Z,1016.26
2023-02-04T06:53:48.881Z,1016.24
2023-02-04T06:54:49.164Z,1016.26
2023-02-04T06:56:20.803Z,1016.34
2023-02-04T06:56:49.591Z,1016.25
2023-02-04T06:57:48.880Z,1016.24
2023-02-04T06:58:49.037Z,1016.25
2023-02-04T06:59:48.798Z,1016.33
2023-02-04T07:00:48.914Z,1016.26
2023-02-04T07:01:49.252Z,1016.24
2023-02-04T07:02:48.826Z,1016.29
2023-02-04T07:03:48.859Z,1016.23
2023-02-04T07:04:48.802Z,1016.28
2023-02-04T07:05:48.745Z,1016.30
2023-02-04T07:06:48.785Z,1016.22
2023-02-04T07:07:48.847Z,1016.28
2023-02-04T07:08:48.753Z,1016.22
2023-02-04T07:09:48.718Z,1016.26
2023-02-04T07:10:48.724Z,1016.27
2023-02-04T07:11:48.724Z,1016.36
2023-02-04T07:12:48.717Z,1016.33
2023-02-04T07:13:48.687Z,1016.35
2023-02-04T07:14:48.664Z,1016.38
2023-02-04T07:15:48.742Z,1016.32
2023-02-04T07:16:48.685Z,1016.43
2023-02-04T07:17:48.651Z,1016.38
2023-02-04T07:18:48.653Z,1016.34
2023-02-04T07:19:48.648Z,1016.38
2023-02-04T07:20:48.650Z,1016.44
2023-02-04T07:21:48.646Z,1016.46
2023-02-04T07:22:48.733Z,1016.47
2023-02-04T07:23:48.599Z,1016.47
2023-02-04T07:24:48.592Z,1016.53
2023-02-04T07:25:48.596Z,1016.55
2023-02-04T07:26:48.626Z,1016.51
2023-02-04T07:27:48.704Z,1016.54
2023-02-04T07:28:48.559Z,1016.58
2023-02-04T07:29:48.698Z,1016.58
2023-02-04T07:30:48.675Z,1016.56
2023-02-04T07:31:48.646Z,1016.56
2023-02-04T07:32:48.586Z,1016.55
2023-02-04T07:33:48.562Z,1016.45
2023-02-04T07:34:48.567Z,1016.54
2023-02-04T07:35:48.532Z,1016.52
2023-02-04T07:36:48.596Z,1016.51
2023-02-04T07:37:48.534Z,1016.56
2023-02-04T07:38:48.542Z,1016.54
2023-02-04T07:39:48.590Z,1016.53
2023-02-04T07:40:48.500Z,1016.55
2023-02-04T07:41:48.509Z,1016.49
2023-02-04T07:42:48.493Z,1016.55
2023-02-04T07:43:49.268Z,1016.52
2023-02-04T07:44:49.363Z,1016.54
2023-02-04T07:45:48.514Z,1016.53
2023-02-04T07:46:48.425Z,1016.55
2023-02-04T07:47:48.425Z,1016.65
2023-02-04T07:48:48.466Z,1016.70
2023-02-04T07:49:48.628Z,1016.72
2023-02-04T07:50:48.523Z,1016.83
2023-02-04T07:51:48.460Z,1016.79
2023-02-04T07:52:48.398Z,1016.80
2023-02-04T07:53:48.473Z,1016.83
2023-02-04T07:54:48.440Z,1016.82
2023-02-04T07:55:48.363Z,1016.89
2023-02-04T07:56:48.350Z,1016.93
2023-02-04T07:57:48.417Z,1016.96
2023-02-04T07:58:48.344Z,1016.89
2023-02-04T07:59:48.317Z,1016.96
2023-02-04T08:00:48.328Z,1016.98
2023-02-04T08:01:48.419Z,1016.96
2023-02-04T08:02:48.389Z,1016.94
2023-02-04T08:03:48.319Z,1016.98
2023-02-04T08:04:48.303Z,1017.02
2023-02-04T08:05:48.306Z,1017.01
2023-02-04T08:06:48.380Z,1017.08
2023-02-04T08:07:48.252Z,1017.08
2023-02-04T08:08:48.251Z,1017.06
2023-02-04T08:09:48.362Z,1017.03
2023-02-04T08:10:48.220Z,1017.09
2023-02-04T08:11:48.264Z,1017.07
2023-02-04T08:12:48.234Z,1017.13
2023-02-04T08:13:48.231Z,1017.17
2023-02-04T08:14:48.784Z,1017.21
2023-02-04T08:15:48.299Z,1017.16
2023-02-04T08:16:48.231Z,1017.13
2023-02-04T08:17:48.270Z,1017.10
2023-02-04T08:18:48.204Z,1017.14
2023-02-04T08:19:48.161Z,1017.16
2023-02-04T08:20:48.207Z,1017.16
2023-02-04T08:21:48.214Z,1017.13
2023-02-04T08:22:48.215Z,1017.12
2023-02-04T08:23:48.185Z,1017.10
2023-02-04T08:24:48.125Z,1017.12
2023-02-04T08:25:48.107Z,1017.19
2023-02-04T08:26:48.128Z,1017.20
2023-02-04T08:27:48.166Z,1017.33
2023-02-04T08:28:48.127Z,1017.28
2023-02-04T08:29:48.099Z,1017.26
2023-02-04T08:30:48.182Z,1017.34
2023-02-04T08:31:48.118Z,1017.31
2023-02-04T08:32:48.105Z,1017.31
2023-02-04T08:33:48.109Z,1017.33
2023-02-04T08:34:48.072Z,1017.26
2023-02-04T08:35:48.032Z,1017.30
2023-02-04T08:36:48.054Z,1017.24
2023-02-04T08:37:48.051Z,1017.28
2023-02-04T08:38:48.033Z,1017.34
2023-02-04T08:39:48.055Z,1017.29
2023-02-04T08:40:48.029Z,1017.30
2023-02-04T08:41:47.986Z,1017.40
2023-02-04T08:42:47.999Z,1017.35
2023-02-04T08:43:48.010Z,1017.34
2023-02-04T08:44:47.991Z,1017.37
2023-02-04T08:45:47.973Z,1017.38
2023-02-04T08:46:48.136Z,1017.39
2023-02-04T08:47:47.982Z,1017.40
2023-02-04T08:48:47.974Z,1017.38
2023-02-04T08:49:48.051Z,1017.41
2023-02-04T08:50:47.944Z,1017.38
2023-02-04T08:51:48.007Z,1017.38
2023-02-04T08:52:48.045Z,1017.37
2023-02-04T08:53:47.929Z,1017.31
2023-02-04T08:54:47.916Z,1017.35
2023-02-04T08:55:48.014Z,1017.37
2023-02-04T08:56:47.946Z,1017.32
2023-02-04T08:57:47.910Z,1017.36
2023-02-04T08:58:47.899Z,1017.43
2023-02-04T08:59:47.931Z,1017.33
2023-02-04T09:00:47.965Z,1017.34
2023-02-04T09:01:49.303Z,1017.35
2023-02-04T09:02:47.876Z,1017.32
2023-02-04T09:03:47.954Z,1017.29
2023-02-04T09:04:47.832Z,1017.24
2023-02-04T09:05:47.844Z,1017.22
2023-02-04T09:06:47.880Z,1017.23
2023-02-04T09:07:47.837Z,1017.19
2023-02-04T09:08:47.828Z,1017.14
2023-02-04T09:09:47.915Z,1017.18
2023-02-04T09:10:47.816Z,1017.16
2023-02-04T09:11:47.798Z,1017.07
2023-02-04T09:12:47.786Z,1017.16
2023-02-04T09:13:47.775Z,1017.16
2023-02-04T09:14:47.811Z,1017.14
2023-02-04T09:15:47.767Z,1017.13
2023-02-04T09:16:47.796Z,1017.08
2023-02-04T09:17:47.758Z,1017.14
2023-02-04T09:18:47.763Z,1017.13
2023-02-04T09:19:47.842Z,1017.11
2023-02-04T09:20:47.747Z,1017.12
2023-02-04T09:21:47.743Z,1017.12
2023-02-04T09:22:47.723Z,1017.17
2023-02-04T09:23:47.706Z,1017.20
2023-02-04T09:24:47.697Z,1017.18
2023-02-04T09:25:47.741Z,1017.23
2023-02-04T09:26:47.713Z,1017.24
2023-02-04T09:27:47.677Z,1017.22
2023-02-04T09:28:47.688Z,1017.32
2023-02-04T09:29:47.645Z,1017.28
2023-02-04T09:30:47.688Z,1017.32
2023-02-04T09:31:47.693Z,1017.21
2023-02-04T09:32:47.628Z,1017.25
2023-02-04T09:33:47.615Z,1017.18
2023-02-04T09:34:47.653Z,1017.19
2023-02-04T09:35:47.598Z,1017.26
2023-02-04T09:36:47.638Z,1017.29
2023-02-04T09:37:47.615Z,1017.31
2023-02-04T09:38:47.648Z,1017.36
2023-02-04T09:39:47.602Z,1017.39
2023-02-04T09:40:47.626Z,1017.44
2023-02-04T09:41:47.587Z,1017.46
2023-02-04T09:42:47.609Z,1017.51
2023-02-04T09:43:47.572Z,1017.52
2023-02-04T09:44:47.574Z,1017.54
2023-02-04T09:45:47.618Z,1017.64
2023-02-04T09:46:47.556Z,1017.64
2023-02-04T09:47:47.564Z,1017.63
2023-02-04T09:48:47.545Z,1017.69
2023-02-04T09:49:47.546Z,1017.75
2023-02-04T09:50:47.509Z,1017.77
2023-02-04T09:51:47.613Z,1017.78
2023-02-04T09:52:47.497Z,1017.79
2023-02-04T09:53:47.473Z,1017.77
2023-02-04T09:54:47.475Z,1017.82
2023-02-04T09:55:47.476Z,1017.84
2023-02-04T09:56:47.524Z,1017.84
2023-02-04T09:57:47.507Z,1017.85
2023-02-04T09:58:47.424Z,1017.88
2023-02-04T09:59:47.431Z,1017.92
2023-02-04T10:00:47.458Z,1017.94
2023-02-04T10:01:47.422Z,1018.00
2023-02-04T10:02:47.425Z,1018.05
2023-02-04T10:03:47.515Z,1018.09
2023-02-04T10:04:47.405Z,1018.05
2023-02-04T10:05:47.421Z,1018.07
2023-02-04T10:06:47.470Z,1018.04
2023-02-04T10:07:47.395Z,1018.18
2023-02-04T10:08:47.361Z,1018.16
2023-02-04T10:09:47.431Z,1018.13
2023-02-04T10:10:47.432Z,1018.16
2023-02-04T10:11:47.313Z,1018.23
2023-02-04T10:12:47.323Z,1018.23
2023-02-04T10:13:47.333Z,1018.19
2023-02-04T10:14:47.407Z,1018.27
2023-02-04T10:15:47.350Z,1018.30
2023-02-04T10:16:47.341Z,1018.28
2023-02-04T10:17:47.293Z,1018.29
2023-02-04T10:18:47.302Z,1018.33
2023-02-04T10:19:47.306Z,1018.29
2023-02-04T10:20:47.244Z,1018.42
2023-02-04T10:21:47.258Z,1018.42
2023-02-04T10:22:47.277Z,1018.47
2023-02-04T10:23:47.229Z,1018.48
2023-02-04T10:24:47.265Z,1018.50
2023-02-04T10:25:47.242Z,1018.49
2023-02-04T10:26:47.227Z,1018.53
2023-02-04T10:27:47.195Z,1018.58
2023-02-04T10:28:47.188Z,1018.52
2023-02-04T10:29:47.183Z,1018.55
2023-02-04T10:30:47.403Z,1018.58
2023-02-04T10:31:47.296Z,1018.58
2023-02-04T10:32:47.187Z,1018.60
2023-02-04T10:33:47.190Z,1018.59
2023-02-04T10:34:47.170Z,1018.62
2023-02-04T10:35:47.153Z,1018.64
2023-02-04T10:36:47.133Z,1018.57
2023-02-04T10:37:47.122Z,1018.61
2023-02-04T10:38:47.158Z,1018.57
2023-02-04T10:39:47.119Z,1018.58
2023-02-04T10:40:47.171Z,1018.57
2023-02-04T10:41:49.596Z,1018.56
2023-02-04T10:42:47.132Z,1018.56
2023-02-04T10:43:47.117Z,1018.59
2023-02-04T10:44:47.094Z,1018.61
2023-02-04T10:45:47.191Z,1018.61
2023-02-04T10:46:47.086Z,1018.66
2023-02-04T10:47:47.075Z,1018.61
2023-02-04T10:48:47.199Z,1018.65
2023-02-04T10:49:47.082Z,1018.66
2023-02-04T10:50:47.057Z,1018.68
2023-02-04T10:51:47.046Z,1018.70
2023-02-04T10:52:47.053Z,1018.74
2023-02-04T10:53:47.015Z,1018.78
2023-02-04T10:54:47.016Z,1018.76
2023-02-04T10:55:47.023Z,1018.81
2023-02-04T10:56:47.007Z,1018.83
2023-02-04T10:57:46.976Z,1018.83
2023-02-04T10:58:46.965Z,1018.84
2023-02-04T10:59:46.969Z,1018.80
2023-02-04T11:00:47.011Z,1018.84
2023-02-04T11:01:46.948Z,1018.82
2023-02-04T11:02:46.939Z,1018.80
2023-02-04T11:03:48.575Z,1018.79
2023-02-04T11:04:47.989Z,1018.79
2023-02-04T11:05:46.986Z,1018.83
2023-02-04T11:06:46.895Z,1018.75
2023-02-04T11:07:46.977Z,1018.87
2023-02-04T11:08:46.926Z,1018.85
2023-02-04T11:09:48.651Z,1018.86
2023-02-04T11:10:46.894Z,1018.78
2023-02-04T11:11:46.913Z,1018.79
2023-02-04T11:12:46.909Z,1018.81
2023-02-04T11:13:46.880Z,1018.80
2023-02-04T11:14:46.886Z,1018.84
2023-02-04T11:15:49.886Z,1018.84
2023-02-04T11:16:46.878Z,1018.87
2023-02-04T11:17:46.879Z,1018.83
2023-02-04T11:18:46.822Z,1018.84
2023-02-04T11:19:46.804Z,1018.83
2023-02-04T11:20:47.826Z,1018.84
2023-02-04T11:21:46.804Z,1018.87
2023-02-04T11:22:46.816Z,1018.84
2023-02-04T11:23:46.794Z,1018.84
2023-02-04T11:24:46.772Z,1018.83
2023-02-04T11:25:46.823Z,1018.86
2023-02-04T11:26:46.767Z,1018.90
2023-02-04T11:27:46.834Z,1018.89
2023-02-04T11:28:46.766Z,1018.89
2023-02-04T11:29:46.728Z,1018.90
2023-02-04T11:30:46.840Z,1018.82
2023-02-04T11:31:46.893Z,1018.86
2023-02-04T11:32:46.763Z,1018.85
2023-02-04T11:33:46.702Z,1018.89
2023-02-04T11:34:46.725Z,1018.81
2023-02-04T11:35:46.698Z,1018.83
2023-02-04T11:36:46.674Z,1018.88
2023-02-04T11:37:46.721Z,1018.93
2023-02-04T11:38:46.688Z,1018.98
2023-02-04T11:39:46.704Z,1018.98
2023-02-04T11:40:46.638Z,1018.97
2023-02-04T11:41:46.659Z,1019.05
2023-02-04T11:42:46.668Z,1019.04
2023-02-04T11:43:46.643Z,1019.07
2023-02-04T11:44:46.614Z,1019.08
2023-02-04T11:45:46.646Z,1019.08
2023-02-04T11:46:46.619Z,1018.99
2023-02-04T11:47:46.623Z,1019.03
2023-02-04T11:48:46.751Z,1018.96
2023-02-04T11:49:46.563Z,1018.95
2023-02-04T11:50:46.559Z,1018.91
2023-02-04T11:51:46.596Z,1018.88
2023-02-04T11:52:46.572Z,1018.97
2023-02-04T11:53:46.550Z,1018.89
2023-02-04T11:54:46.563Z,1018.94
2023-02-04T11:55:47.709Z,1018.99
2023-02-04T11:56:47.527Z,1018.87
2023-02-04T11:57:46.552Z,1018.95
2023-02-04T11:58:46.545Z,1018.90
2023-02-04T11:59:46.519Z,1018.89
2023-02-04T12:00:47.167Z,1018.85
2023-02-04T12:01:46.491Z,1018.89
2023-02-04T12:02:46.527Z,1018.85
2023-02-04T12:03:46.537Z,1018.84
2023-02-04T12:04:46.501Z,1018.89
2023-02-04T12:05:46.460Z,1018.88
2023-02-04T12:06:46.445Z,1018.87
2023-02-04T12:07:46.497Z,1018.87
2023-02-04T12:08:46.438Z,1018.89
2023-02-04T12:09:46.440Z,1018.90
2023-02-04T12:10:46.445Z,1018.95
2023-02-04T12:11:46.547Z,1019.01
2023-02-04T12:12:46.465Z,1019.01
2023-02-04T12:13:46.445Z,1018.93
2023-02-04T12:14:46.423Z,1018.89
2023-02-04T12:16:18.368Z,1018.88
2023-02-04T12:16:46.425Z,1018.95
2023-02-04T12:17:46.367Z,1018.92
2023-02-04T12:18:46.371Z,1018.95
2023-02-04T12:19:46.374Z,1018.96
2023-02-04T12:20:46.361Z,1018.98